Portales, New Mexico
Current Conditions -  °F | °C
As of 1:58 AM on Monday 24 Nov 2014 (Local Time) from KCVS Reporting Station
Few Clouds Few Clouds  
Wind Chill: 24°   Ceiling: Unl
Heat Index: 30°   Visibility: 10mi
Dew Point: 26°   Wind: 6mph
Humidity: 85%   Direction: 320°NW
Pressure: 29.98"   Gusts: NA
Location:  34.18°N, 103.33°W
Report Text: KCVS 240858Z AUTO 32005KT 10SM FEW110 M01/M03 A2998 RMK AO2 SLP157 T10111034 53005 $
Loading
Personal Weather Stations






























Interactive Weather Map New forecast layout! Learn more

10-Day Weather Forecast

Advertisements
Track Severe Weather on mobile